Time;durP1;ratioP1;P1;durP2;ratioP2;P2;SDS_P1;SDS_P2;PMS_P1;PMS_P2;Temp;Humidity;BMP_temperature;BMP_pressure;BME280_temperature;BME280_humidity;BME280_pressure;Samples;Min_cycle;Max_cycle;Signal;HPM_P1;HPM_P2
2020/12/16 00:01:08;;;;;;;41.25;16.42;;;7.30;99.90;;;;;;5009100;28;20040;-83
2020/12/16 00:03:54;;;;;;;37.90;15.95;;;7.30;99.90;;;;;;5008806;28;20030;-83
2020/12/16 00:06:19;;;;;;;46.95;16.13;;;7.30;99.90;;;;;;4968451;28;20043;-84
2020/12/16 00:08:45;;;;;;;32.97;15.15;;;7.30;99.90;;;;;;4968809;28;20113;-84
2020/12/16 00:11:11;;;;;;;37.97;14.88;;;7.30;99.90;;;;;;4969219;28;20050;-83
2020/12/16 00:13:36;;;;;;;69.47;19.48;;;7.30;99.90;;;;;;4968791;28;20133;-84
2020/12/16 00:16:34;;;;;;;34.35;15.75;;;7.30;99.90;;;;;;4965709;28;20063;-83
2020/12/16 00:18:59;;;;;;;28.98;14.30;;;7.30;99.90;;;;;;4952852;29;20220;-83
2020/12/16 00:21:31;;;;;;;28.25;15.02;;;7.30;99.90;;;;;;4965928;29;20031;-84
2020/12/16 00:24:02;;;;;;;33.75;15.02;;;7.30;99.90;;;;;;4949961;29;20047;-84
2020/12/16 00:26:37;;;;;;;65.70;16.48;;;7.30;99.90;;;;;;4966163;29;20031;-83
2020/12/16 00:29:02;;;;;;;32.63;15.50;;;7.30;99.90;;;;;;4965597;29;20028;-83
2020/12/16 00:31:28;;;;;;;40.72;16.85;;;7.30;99.90;;;;;;4933542;29;20069;-83
2020/12/16 00:33:53;;;;;;;32.97;13.90;;;7.30;99.90;;;;;;4935371;29;20031;-83
2020/12/16 00:36:20;;;;;;;34.17;15.27;;;7.30;99.90;;;;;;4969494;29;20035;-84
2020/12/16 00:38:46;;;;;;;30.48;14.38;;;7.30;99.90;;;;;;4969429;29;20086;-85
2020/12/16 00:41:11;;;;;;;31.20;14.68;;;7.30;99.90;;;;;;4969464;29;20035;-83
2020/12/16 00:43:37;;;;;;;52.03;16.05;;;7.20;99.90;;;;;;4968814;28;20042;-84
2020/12/16 00:46:03;;;;;;;55.17;16.25;;;7.20;99.90;;;;;;5009171;28;20030;-83
2020/12/16 00:48:29;;;;;;;60.28;17.85;;;7.10;99.90;;;;;;5009203;28;20030;-84
2020/12/16 00:50:55;;;;;;;64.20;15.70;;;7.10;99.90;;;;;;5009476;28;20034;-84
2020/12/16 00:53:21;;;;;;;54.47;14.60;;;7.10;99.90;;;;;;5009203;28;20046;-83
2020/12/16 00:55:51;;;;;;;23.67;12.90;;;7.10;99.90;;;;;;5009808;28;20041;-84
2020/12/16 00:58:18;;;;;;;45.13;14.07;;;7.10;99.90;;;;;;5008841;28;20042;-84
2020/12/16 01:00:49;;;;;;;35.05;14.57;;;7.10;99.90;;;;;;5009771;28;20482;-83
2020/12/16 01:03:15;;;;;;;38.17;12.77;;;7.10;99.90;;;;;;4992962;28;20060;-83
2020/12/16 01:05:42;;;;;;;42.08;14.15;;;7.10;99.90;;;;;;5047841;22;20054;-83
2020/12/16 01:08:08;;;;;;;40.42;15.10;;;7.10;99.90;;;;;;5028613;28;20388;-83
2020/12/16 01:10:34;;;;;;;30.98;14.57;;;7.10;99.90;;;;;;5028793;28;20433;-83
2020/12/16 01:13:01;;;;;;;28.15;14.52;;;7.10;99.90;;;;;;5028670;28;20033;-83
2020/12/16 01:15:29;;;;;;;27.30;13.18;;;7.10;99.90;;;;;;5012738;28;20072;-84
2020/12/16 01:18:02;;;;;;;33.97;13.88;;;7.10;99.90;;;;;;5012844;28;20038;-83
2020/12/16 01:20:49;;;;;;;33.35;14.95;;;7.10;99.90;;;;;;5015140;28;20061;-83
2020/12/16 01:23:27;;;;;;;42.05;15.13;;;7.10;99.90;;;;;;5014114;28;20073;-83
2020/12/16 01:25:56;;;;;;;33.60;14.95;;;7.10;99.90;;;;;;5012137;28;20034;-83
2020/12/16 01:28:22;;;;;;;27.25;13.93;;;7.10;99.90;;;;;;5012159;28;20026;-84
2020/12/16 01:30:55;;;;;;;29.08;13.80;;;7.10;99.90;;;;;;5013220;28;20034;-82
2020/12/16 01:33:21;;;;;;;28.02;14.27;;;7.20;99.90;;;;;;5011850;28;20022;-84
2020/12/16 01:35:57;;;;;;;29.63;14.07;;;7.10;99.90;;;;;;5028499;28;20033;-83
2020/12/16 01:38:26;;;;;;;25.30;13.85;;;7.10;99.90;;;;;;5012040;28;20042;-83
2020/12/16 01:41:02;;;;;;;25.65;13.35;;;7.10;99.90;;;;;;5012036;28;20030;-83
2020/12/16 01:43:34;;;;;;;32.22;14.70;;;7.10;99.90;;;;;;5028070;28;20038;-83
2020/12/16 01:46:00;;;;;;;31.05;11.95;;;7.00;99.90;;;;;;5027230;28;20033;-83
2020/12/16 01:48:25;;;;;;;25.73;11.85;;;6.90;99.90;;;;;;5027969;28;20482;-84
2020/12/16 01:50:51;;;;;;;34.22;11.25;;;6.90;99.90;;;;;;5011467;28;20414;-84
2020/12/16 01:53:18;;;;;;;29.20;11.05;;;6.80;99.90;;;;;;5011265;28;20474;-82
2020/12/16 01:55:47;;;;;;;21.92;9.45;;;6.80;99.90;;;;;;5027720;28;20048;-85
2020/12/16 01:58:23;;;;;;;23.40;12.52;;;6.80;99.90;;;;;;5012679;28;20041;-83
2020/12/16 02:00:53;;;;;;;24.52;10.25;;;6.80;99.90;;;;;;5011450;28;20036;-84
2020/12/16 02:06:48;;;;;;;18.63;10.38;;;6.80;99.90;;;;;;4932141;29;20550;-84
2020/12/16 02:09:14;;;;;;;26.35;11.50;;;6.80;99.90;;;;;;4916577;29;20044;-83
2020/12/16 02:11:50;;;;;;;31.30;10.75;;;6.70;99.90;;;;;;4934216;29;20084;-84
2020/12/16 02:14:22;;;;;;;19.40;9.80;;;6.60;99.90;;;;;;4917647;29;20028;-84
2020/12/16 02:16:52;;;;;;;24.55;11.38;;;6.70;99.90;;;;;;4917107;29;20056;-85
2020/12/16 02:19:19;;;;;;;22.35;11.10;;;6.60;99.90;;;;;;4932524;29;20098;-84
2020/12/16 02:21:54;;;;;;;27.92;10.40;;;6.60;99.90;;;;;;4933624;29;20032;-85
2020/12/16 02:24:21;;;;;;;15.02;10.05;;;6.60;99.90;;;;;;4916365;29;20047;-85
2020/12/16 02:26:49;;;;;;;21.27;11.00;;;6.60;99.90;;;;;;4932487;29;20039;-84
2020/12/16 02:29:15;;;;;;;24.50;9.48;;;6.50;99.90;;;;;;4932279;29;20032;-84
2020/12/16 02:31:46;;;;;;;19.95;9.38;;;6.50;99.90;;;;;;4917029;29;20059;-83
2020/12/16 02:34:13;;;;;;;18.45;9.85;;;6.60;99.90;;;;;;4916466;29;20036;-83
2020/12/16 02:36:42;;;;;;;13.00;8.23;;;6.60;99.90;;;;;;4916649;29;20039;-84
2020/12/16 02:39:14;;;;;;;19.27;9.75;;;6.60;99.90;;;;;;4917050;29;20055;-85
2020/12/16 02:41:47;;;;;;;18.73;9.48;;;6.60;99.90;;;;;;4917733;29;20095;-85
2020/12/16 02:44:14;;;;;;;17.10;8.75;;;6.60;99.90;;;;;;4986497;28;20065;-84
2020/12/16 02:46:58;;;;;;;18.70;9.68;;;6.60;99.90;;;;;;5011921;28;20060;-83
2020/12/16 02:49:25;;;;;;;16.15;9.95;;;6.60;99.90;;;;;;5010361;28;20148;-84
2020/12/16 02:51:51;;;;;;;40.17;11.23;;;6.60;99.90;;;;;;5026547;28;20036;-84
2020/12/16 02:54:17;;;;;;;17.90;11.18;;;6.50;99.90;;;;;;5010107;28;20026;-84
2020/12/16 02:56:49;;;;;;;23.15;10.30;;;6.50;99.90;;;;;;5009822;28;20065;-84
2020/12/16 02:59:15;;;;;;;15.95;8.82;;;6.50;99.90;;;;;;5010136;28;20030;-84
2020/12/16 03:01:51;;;;;;;18.50;9.43;;;6.50;99.90;;;;;;5026438;28;20026;-85
2020/12/16 03:04:49;;;;;;;15.65;8.50;;;6.50;99.90;;;;;;5025929;28;20045;-84
2020/12/16 03:07:28;;;;;;;21.20;8.98;;;6.50;99.90;;;;;;5011635;28;20052;-84
2020/12/16 03:10:14;;;;;;;17.63;8.35;;;6.50;99.90;;;;;;5009894;28;20022;-85
2020/12/16 03:12:40;;;;;;;14.65;7.80;;;6.40;99.90;;;;;;5002276;22;20112;-84
2020/12/16 03:15:07;;;;;;;17.13;8.43;;;6.40;99.90;;;;;;5066070;28;20033;-83
2020/12/16 03:17:32;;;;;;;14.00;8.63;;;6.30;99.90;;;;;;5066017;28;20120;-84
2020/12/16 03:20:03;;;;;;;17.10;8.40;;;6.40;99.90;;;;;;5066152;28;20025;-84
2020/12/16 03:22:30;;;;;;;14.45;8.85;;;6.30;99.90;;;;;;5065914;28;20056;-83
2020/12/16 03:25:10;;;;;;;14.35;8.18;;;6.30;99.90;;;;;;5051064;28;20028;-84
2020/12/16 03:27:49;;;;;;;12.40;8.45;;;6.30;99.90;;;;;;5066068;28;20037;-83
2020/12/16 03:30:41;;;;;;;12.07;7.53;;;6.20;99.90;;;;;;5058018;28;20036;-83
2020/12/16 03:33:27;;;;;;;15.57;7.25;;;6.20;99.90;;;;;;5065265;28;20044;-83
2020/12/16 03:36:18;;;;;;;13.13;7.97;;;6.10;99.90;;;;;;5065751;28;20040;-83
2020/12/16 03:38:47;;;;;;;12.48;7.82;;;6.10;99.90;;;;;;5065626;28;20037;-83
2020/12/16 03:41:15;;;;;;;12.38;7.93;;;6.10;99.90;;;;;;5065222;28;20029;-83
2020/12/16 03:43:43;;;;;;;;;;;6.10;99.90;;;;;;5050048;28;20035;-84
2020/12/16 03:46:10;;;;;;;10.50;7.07;;;6.00;99.90;;;;;;5049195;28;19958;-83
2020/12/16 03:48:40;;;;;;;;;;;6.10;99.90;;;;;;5066103;28;20124;-83
2020/12/16 03:51:13;;;;;;;10.98;7.32;;;6.10;99.90;;;;;;5048807;28;19915;-83
2020/12/16 03:53:42;;;;;;;11.75;7.32;;;6.10;99.90;;;;;;5065278;28;20480;-83
2020/12/16 03:56:30;;;;;;;12.75;7.63;;;6.10;99.90;;;;;;5064754;28;20025;-83
2020/12/16 03:59:13;;;;;;;13.07;7.63;;;6.10;99.90;;;;;;5065530;28;20055;-83
2020/12/16 04:01:57;;;;;;;14.27;8.85;;;6.10;99.90;;;;;;5065130;28;20107;-83
2020/12/16 04:04:24;;;;;;;12.80;8.32;;;6.10;99.90;;;;;;5065024;28;20025;-84
2020/12/16 04:07:00;;;;;;;14.65;9.55;;;6.10;99.90;;;;;;5064875;28;20025;-85
2020/12/16 04:09:30;;;;;;;13.45;8.82;;;6.10;99.90;;;;;;5048830;28;20029;-84
2020/12/16 04:11:59;;;;;;;13.35;9.00;;;6.20;99.90;;;;;;5048303;28;20112;-83
2020/12/16 04:14:30;;;;;;;13.30;9.20;;;6.20;99.90;;;;;;5049090;28;20029;-84
2020/12/16 04:16:56;;;;;;;13.60;8.50;;;6.20;99.90;;;;;;5064698;28;20059;-83
2020/12/16 04:19:24;;;;;;;14.93;8.38;;;6.20;99.90;;;;;;5064927;28;20054;-85
2020/12/16 04:21:56;;;;;;;13.73;8.88;;;6.10;99.90;;;;;;5064843;28;20139;-85
2020/12/16 04:24:25;;;;;;;15.05;8.70;;;6.10;99.90;;;;;;5064845;28;20029;-84
2020/12/16 04:27:04;;;;;;;15.25;9.18;;;6.10;99.90;;;;;;5064542;28;20025;-84
2020/12/16 04:29:31;;;;;;;13.35;9.38;;;6.10;99.90;;;;;;5064973;28;20052;-83
2020/12/16 04:31:56;;;;;;;16.90;9.93;;;6.10;99.90;;;;;;5064693;28;20033;-84
2020/12/16 04:34:30;;;;;;;12.57;8.07;;;6.10;99.90;;;;;;5064993;28;20040;-84
2020/12/16 04:36:56;;;;;;;13.77;8.77;;;6.10;99.90;;;;;;5064480;28;20037;-84
2020/12/16 04:39:24;;;;;;;12.52;8.27;;;6.10;99.90;;;;;;5064951;28;20067;-85
2020/12/16 04:41:52;;;;;;;12.25;7.57;;;6.10;99.90;;;;;;5064737;28;20029;-84
2020/12/16 04:44:19;;;;;;;11.77;7.97;;;6.00;99.90;;;;;;5049425;28;20033;-84
2020/12/16 04:46:54;;;;;;;14.15;9.68;;;6.00;99.90;;;;;;5064505;28;20047;-85
2020/12/16 04:49:28;;;;;;;12.77;7.13;;;5.90;99.90;;;;;;5064860;28;20121;-84
2020/12/16 04:51:55;;;;;;;12.18;8.15;;;5.90;99.90;;;;;;5064431;28;20055;-84
2020/12/16 04:54:34;;;;;;;11.48;7.53;;;5.80;99.90;;;;;;5064521;28;20049;-84
2020/12/16 04:57:06;;;;;;;10.80;7.35;;;5.80;99.90;;;;;;5064097;28;20059;-84
2020/12/16 04:59:36;;;;;;;10.35;6.82;;;5.90;99.90;;;;;;5065599;28;20032;-83
2020/12/16 05:02:14;;;;;;;12.50;7.88;;;5.90;99.90;;;;;;5064324;28;20033;-83
2020/12/16 05:05:08;;;;;;;12.90;7.50;;;5.90;99.90;;;;;;5043468;22;20061;-83
2020/12/16 05:07:35;;;;;;;10.73;7.13;;;5.90;99.90;;;;;;5046523;23;20050;-84
2020/12/16 05:10:01;;;;;;;11.65;8.13;;;5.90;99.90;;;;;;5028243;28;20034;-83
2020/12/16 05:12:27;;;;;;;12.85;7.63;;;5.90;99.90;;;;;;5044601;28;20030;-84
2020/12/16 05:14:52;;;;;;;11.07;7.28;;;5.80;99.90;;;;;;5027967;28;20120;-83
2020/12/16 05:17:18;;;;;;;11.90;7.60;;;5.80;99.90;;;;;;5033598;28;20025;-83
2020/12/16 05:20:08;;;;;;;11.65;7.28;;;5.80;99.90;;;;;;5030367;28;20029;-83
2020/12/16 05:22:33;;;;;;;13.35;7.88;;;5.80;99.90;;;;;;5048288;28;20084;-83
2020/12/16 05:25:00;;;;;;;11.95;7.55;;;5.70;99.90;;;;;;5048274;28;20557;-83
2020/12/16 05:27:31;;;;;;;10.43;6.90;;;5.70;99.90;;;;;;5048155;28;20049;-83
2020/12/16 05:30:02;;;;;;;12.10;7.32;;;5.70;99.90;;;;;;5048178;28;20382;-85
2020/12/16 05:32:34;;;;;;;13.27;7.68;;;5.60;99.90;;;;;;5047818;28;20224;-83
2020/12/16 05:35:18;;;;;;;14.23;8.20;;;5.60;99.90;;;;;;5045163;28;20034;-84
2020/12/16 05:37:58;;;;;;;12.05;7.80;;;5.50;99.90;;;;;;5046857;28;20041;-82
2020/12/16 05:40:23;;;;;;;12.70;7.47;;;5.50;99.90;;;;;;5027807;28;20034;-83
2020/12/16 05:42:50;;;;;;;13.60;8.23;;;5.40;99.90;;;;;;5027567;28;20049;-83
2020/12/16 05:45:27;;;;;;;13.93;8.50;;;5.40;99.90;;;;;;5027818;28;20565;-83
2020/12/16 05:48:09;;;;;;;14.07;8.73;;;5.30;99.90;;;;;;5043151;28;20040;-84
2020/12/16 05:50:38;;;;;;;12.50;7.75;;;5.30;99.90;;;;;;5030840;28;20036;-84
2020/12/16 05:53:13;;;;;;;11.90;7.78;;;5.20;99.90;;;;;;5030893;28;20037;-83
2020/12/16 05:55:39;;;;;;;13.55;8.60;;;5.10;99.90;;;;;;5047288;28;20034;-83
2020/12/16 05:58:10;;;;;;;13.82;8.18;;;5.10;99.90;;;;;;5046874;28;20057;-84
2020/12/16 06:00:50;;;;;;;12.10;7.47;;;5.10;99.90;;;;;;5047475;28;20063;-84
2020/12/16 06:03:56;;;;;;;13.88;8.18;;;5.10;99.90;;;;;;5032117;28;20044;-83
2020/12/16 06:06:22;;;;;;;11.65;7.10;;;5.10;99.90;;;;;;5001338;28;20030;-83
2020/12/16 06:08:48;;;;;;;11.07;7.13;;;5.00;99.90;;;;;;4974188;28;20058;-83
2020/12/16 06:11:14;;;;;;;14.07;7.45;;;5.00;99.90;;;;;;4990373;28;20070;-84
2020/12/16 06:13:45;;;;;;;13.60;7.88;;;5.00;99.90;;;;;;4974147;28;20034;-84
2020/12/16 06:16:11;;;;;;;12.95;7.47;;;5.00;99.90;;;;;;4961073;28;20074;-84
2020/12/16 06:18:43;;;;;;;15.25;7.93;;;5.00;99.90;;;;;;4954142;28;20106;-84
2020/12/16 06:21:11;;;;;;;11.98;7.25;;;5.00;99.90;;;;;;4954135;28;20071;-83
2020/12/16 06:23:41;;;;;;;12.43;7.00;;;4.90;99.90;;;;;;4954738;28;20031;-83
2020/12/16 06:26:09;;;;;;;13.50;7.47;;;5.00;99.90;;;;;;4970805;28;20134;-84
2020/12/16 06:28:35;;;;;;;9.65;6.35;;;4.90;99.90;;;;;;4954597;28;20109;-83
2020/12/16 06:31:14;;;;;;;11.05;6.68;;;4.80;99.90;;;;;;4954402;28;20110;-84
2020/12/16 06:34:02;;;;;;;11.65;7.43;;;4.90;99.90;;;;;;4955299;28;20027;-83
2020/12/16 06:36:35;;;;;;;12.82;7.00;;;4.90;99.90;;;;;;4970308;28;20047;-84
2020/12/16 06:39:13;;;;;;;10.55;6.75;;;4.80;99.90;;;;;;4970590;28;20046;-83
2020/12/16 06:41:38;;;;;;;13.55;7.07;;;4.90;99.90;;;;;;4970636;28;20039;-83
2020/12/16 06:44:11;;;;;;;13.00;7.78;;;4.80;99.90;;;;;;5012676;28;20045;-83
2020/12/16 06:46:52;;;;;;;12.68;6.97;;;4.90;99.90;;;;;;5026253;28;20094;-82
2020/12/16 06:49:25;;;;;;;11.45;6.85;;;4.90;99.90;;;;;;5029651;28;20104;-83
2020/12/16 06:51:54;;;;;;;10.82;5.70;;;4.80;99.90;;;;;;5029761;28;20033;-82
2020/12/16 06:54:21;;;;;;;11.20;6.55;;;4.80;99.90;;;;;;5029784;28;20033;-83
2020/12/16 06:56:49;;;;;;;14.40;7.75;;;4.90;99.90;;;;;;5045787;28;20029;-83
2020/12/16 06:59:15;;;;;;;10.98;6.70;;;4.90;99.90;;;;;;5029198;28;20044;-83
2020/12/16 07:01:41;;;;;;;11.95;6.50;;;4.80;99.90;;;;;;5045900;28;20064;-84
2020/12/16 07:04:11;;;;;;;13.52;7.65;;;4.80;99.90;;;;;;5029135;28;20033;-83
2020/12/16 07:06:39;;;;;;;11.38;7.32;;;4.80;99.90;;;;;;5046243;28;20406;-83
2020/12/16 07:09:19;;;;;;;11.90;7.43;;;4.80;99.90;;;;;;5029417;28;20038;-84
2020/12/16 07:11:49;;;;;;;12.48;6.55;;;4.80;99.90;;;;;;5046122;28;20089;-83
2020/12/16 07:14:16;;;;;;;10.57;6.32;;;4.70;99.90;;;;;;5045842;28;20037;-83
2020/12/16 07:16:42;;;;;;;12.20;5.68;;;4.70;99.90;;;;;;5045564;28;20033;-83
2020/12/16 07:19:09;;;;;;;13.05;6.68;;;4.70;99.90;;;;;;5029118;28;20037;-82
2020/12/16 07:21:36;;;;;;;11.50;6.95;;;4.80;99.90;;;;;;5029258;28;20163;-83
2020/12/16 07:24:09;;;;;;;12.30;6.80;;;4.80;99.90;;;;;;5047323;28;20037;-83
2020/12/16 07:26:43;;;;;;;14.35;7.20;;;4.80;99.90;;;;;;5045717;28;20034;-83
2020/12/16 07:29:18;;;;;;;11.73;7.32;;;4.80;99.90;;;;;;5045864;28;20033;-83
2020/12/16 07:31:58;;;;;;;10.30;6.82;;;4.80;99.90;;;;;;5045857;28;20065;-83
2020/12/16 07:34:25;;;;;;;10.52;6.53;;;4.80;99.90;;;;;;5045713;28;20033;-83
2020/12/16 07:36:55;;;;;;;11.82;6.38;;;4.70;99.90;;;;;;5047006;28;20037;-82
2020/12/16 07:39:21;;;;;;;;;;;4.70;99.90;;;;;;5045960;28;20059;-83
2020/12/16 07:41:48;;;;;;;10.18;5.50;;;4.70;99.90;;;;;;5028903;28;19909;-82
2020/12/16 07:44:13;;;;;;;9.23;5.47;;;4.70;99.90;;;;;;5044973;28;20500;-83
2020/12/16 07:46:39;;;;;;;11.15;6.25;;;4.70;99.90;;;;;;5045117;28;20052;-83
2020/12/16 07:49:05;;;;;;;9.73;5.40;;;4.70;99.90;;;;;;5045983;28;20071;-82
2020/12/16 07:51:30;;;;;;;9.70;5.85;;;4.70;99.90;;;;;;5044840;28;20038;-83
2020/12/16 07:53:56;;;;;;;12.10;7.10;;;4.70;99.90;;;;;;5044618;28;20345;-83
2020/12/16 07:56:22;;;;;;;13.90;7.05;;;4.80;99.90;;;;;;5044527;28;20026;-82
2020/12/16 07:58:47;;;;;;;9.75;6.03;;;4.90;99.90;;;;;;5044521;28;20049;-83
2020/12/16 08:01:18;;;;;;;14.40;7.28;;;4.80;99.90;;;;;;5044440;28;20183;-83
2020/12/16 08:03:45;;;;;;;12.73;5.72;;;4.80;99.90;;;;;;5044417;28;20040;-82
2020/12/16 08:06:11;;;;;;;12.68;6.93;;;4.90;99.90;;;;;;5024589;28;20077;-83
2020/12/16 08:08:48;;;;;;;11.50;7.32;;;4.90;99.90;;;;;;5041178;28;20056;-83
2020/12/16 08:11:20;;;;;;;11.60;7.03;;;5.00;99.90;;;;;;5024428;28;20037;-83
2020/12/16 08:13:47;;;;;;;13.07;7.00;;;4.90;99.90;;;;;;5024441;28;20037;-82
2020/12/16 08:16:13;;;;;;;10.68;6.60;;;4.90;99.90;;;;;;5027500;28;20037;-83
2020/12/16 08:18:49;;;;;;;12.05;7.25;;;5.00;99.90;;;;;;5044304;28;20527;-82
2020/12/16 08:21:20;;;;;;;12.05;6.90;;;5.00;99.90;;;;;;5027537;28;20037;-82
2020/12/16 08:23:46;;;;;;;10.57;6.75;;;5.10;99.90;;;;;;5044145;28;20082;-82
2020/12/16 08:26:12;;;;;;;9.57;5.85;;;5.00;99.90;;;;;;5043870;28;20087;-83
2020/12/16 08:28:38;;;;;;;10.90;6.20;;;5.00;99.90;;;;;;5044213;28;20037;-83
2020/12/16 08:31:04;;;;;;;10.50;6.72;;;5.10;99.90;;;;;;5044053;28;20076;-83
2020/12/16 08:33:32;;;;;;;13.88;7.85;;;5.00;99.90;;;;;;5043888;28;20037;-83
2020/12/16 08:36:01;;;;;;;12.73;6.68;;;5.20;99.90;;;;;;5043995;28;20039;-83
2020/12/16 08:38:33;;;;;;;10.00;6.28;;;5.20;99.90;;;;;;5043669;28;20045;-83
2020/12/16 08:41:00;;;;;;;10.48;6.60;;;5.30;99.90;;;;;;5044094;28;20060;-84
2020/12/16 08:43:29;;;;;;;13.23;7.03;;;5.30;99.90;;;;;;5044273;28;20385;-84
2020/12/16 08:46:01;;;;;;;12.40;7.32;;;5.40;99.90;;;;;;5043846;28;20079;-82
2020/12/16 08:48:27;;;;;;;12.35;7.38;;;5.40;99.90;;;;;;5043970;28;20029;-83
2020/12/16 08:51:04;;;;;;;14.50;8.13;;;5.40;99.90;;;;;;5027476;28;20056;-83
2020/12/16 08:53:42;;;;;;;12.27;7.90;;;5.60;99.90;;;;;;5043860;28;20064;-83
2020/12/16 08:56:33;;;;;;;13.32;7.35;;;5.70;99.90;;;;;;5047965;28;20045;-83
2020/12/16 08:59:00;;;;;;;14.48;7.53;;;5.70;99.90;;;;;;5048004;28;20117;-83
2020/12/16 09:01:26;;;;;;;13.85;7.68;;;5.80;99.90;;;;;;5047800;28;20033;-84
2020/12/16 09:03:53;;;;;;;10.10;6.28;;;5.80;99.90;;;;;;5047501;28;20041;-82
2020/12/16 09:06:19;;;;;;;12.98;8.63;;;5.90;99.90;;;;;;5047290;28;20029;-83
2020/12/16 09:08:44;;;;;;;13.60;6.90;;;5.90;99.90;;;;;;5047496;28;20064;-83
2020/12/16 09:11:10;;;;;;;13.13;6.78;;;6.00;99.90;;;;;;5047671;28;20116;-82
2020/12/16 09:13:35;;;;;;;14.65;8.80;;;6.00;99.90;;;;;;5047802;28;20025;-83
2020/12/16 09:16:01;;;;;;;15.35;8.88;;;6.10;99.90;;;;;;5030877;28;20033;-83
2020/12/16 09:18:29;;;;;;;12.93;8.13;;;6.10;99.90;;;;;;5047256;28;20047;-84
2020/12/16 09:20:56;;;;;;;15.45;7.80;;;6.20;99.90;;;;;;5030839;28;20032;-83
2020/12/16 09:23:23;;;;;;;14.50;9.10;;;6.30;99.90;;;;;;5030737;28;20036;-83
2020/12/16 09:25:51;;;;;;;14.07;8.55;;;6.40;99.90;;;;;;5047447;28;20093;-83
2020/12/16 09:28:18;;;;;;;15.85;8.63;;;6.40;99.90;;;;;;5047154;28;20037;-83
2020/12/16 09:30:44;;;;;;;18.00;9.55;;;6.40;99.90;;;;;;5030875;28;20226;-82
2020/12/16 09:33:14;;;;;;;20.98;10.68;;;6.50;99.90;;;;;;5047209;28;20029;-83
2020/12/16 09:35:41;;;;;;;16.73;10.02;;;6.50;99.90;;;;;;5030488;28;20473;-83
2020/12/16 09:38:14;;;;;;;18.95;11.35;;;6.60;99.90;;;;;;5030410;28;20065;-83
2020/12/16 09:40:40;;;;;;;19.13;11.50;;;6.70;99.90;;;;;;5047239;28;20026;-83
2020/12/16 09:43:08;;;;;;;15.68;9.60;;;6.70;99.90;;;;;;5047108;28;20036;-83
2020/12/16 09:45:34;;;;;;;16.33;10.15;;;6.80;99.90;;;;;;5046769;28;20040;-83
2020/12/16 09:48:00;;;;;;;15.60;9.82;;;6.80;99.90;;;;;;5030080;28;20128;-83
2020/12/16 09:50:34;;;;;;;18.05;11.40;;;6.80;99.90;;;;;;5046793;28;20029;-83
2020/12/16 09:53:02;;;;;;;18.13;11.57;;;6.90;99.90;;;;;;5046823;28;20037;-83
2020/12/16 09:55:29;;;;;;;18.67;10.95;;;7.00;99.90;;;;;;5030073;28;20026;-83
2020/12/16 09:58:04;;;;;;;22.90;12.55;;;7.00;99.90;;;;;;5046365;28;20110;-82
2020/12/16 10:00:32;;;;;;;23.42;13.57;;;7.10;99.90;;;;;;5030154;28;20056;-83
2020/12/16 10:03:08;;;;;;;24.02;13.77;;;7.20;99.90;;;;;;5029216;28;20033;-83
2020/12/16 10:05:35;;;;;;;22.70;12.98;;;7.30;99.90;;;;;;5045653;28;20407;-82
2020/12/16 10:08:01;;;;;;;19.33;11.95;;;7.30;99.90;;;;;;5029601;28;20049;-82
2020/12/16 10:10:31;;;;;;;19.27;12.40;;;7.30;99.90;;;;;;5046707;28;20056;-82
2020/12/16 10:12:57;;;;;;;;;;;7.40;99.90;;;;;;5030359;28;20500;-82
2020/12/16 10:15:23;;;;;;;22.15;12.40;;;7.50;99.90;;;;;;5029693;28;19909;-82
2020/12/16 10:17:49;;;;;;;18.42;11.40;;;7.50;99.90;;;;;;5029713;28;20037;-82
2020/12/16 10:20:16;;;;;;;19.02;11.50;;;7.50;99.90;;;;;;5046202;28;20030;-81
2020/12/16 10:22:42;;;;;;;19.02;12.10;;;7.60;99.90;;;;;;5029837;28;20080;-83
2020/12/16 10:25:08;;;;;;;16.98;11.88;;;7.60;99.90;;;;;;5029775;28;20055;-84
2020/12/16 10:27:34;;;;;;;15.25;10.57;;;7.60;99.90;;;;;;5029742;28;20112;-83
2020/12/16 10:30:00;;;;;;;18.67;10.80;;;7.60;99.90;;;;;;5029521;28;20039;-83
2020/12/16 10:32:26;;;;;;;19.33;12.32;;;7.60;99.90;;;;;;5062578;28;20056;-82
2020/12/16 10:34:53;;;;;;;16.05;10.68;;;7.60;99.90;;;;;;5045815;28;20033;-82
2020/12/16 10:37:26;;;;;;;21.75;13.50;;;7.60;99.90;;;;;;5029246;28;20045;-82
2020/12/16 10:39:52;;;;;;;15.73;10.30;;;7.60;99.90;;;;;;5029445;28;20104;-81
2020/12/16 10:42:20;;;;;;;17.42;11.02;;;7.60;99.90;;;;;;5029446;28;20036;-81
2020/12/16 10:44:45;;;;;;;16.15;10.82;;;7.60;99.90;;;;;;5046783;28;20448;-81
2020/12/16 10:47:11;;;;;;;19.20;13.57;;;7.70;99.90;;;;;;5045802;28;20034;-82
2020/12/16 10:49:39;;;;;;;15.40;10.02;;;7.80;99.90;;;;;;5045542;28;20053;-82
2020/12/16 10:52:07;;;;;;;19.20;11.60;;;7.90;99.90;;;;;;5029422;28;20045;-82
2020/12/16 10:54:32;;;;;;;17.27;10.63;;;8.00;99.90;;;;;;5029136;28;20116;-82
2020/12/16 10:56:59;;;;;;;14.90;9.77;;;8.00;99.90;;;;;;5029790;28;20021;-81
2020/12/16 10:59:26;;;;;;;14.43;9.95;;;8.00;99.90;;;;;;5028874;28;20063;-82
2020/12/16 11:01:52;;;;;;;16.20;9.70;;;8.10;99.90;;;;;;5045076;28;20030;-81
2020/12/16 11:04:19;;;;;;;15.60;10.20;;;8.10;99.90;;;;;;5053277;23;20021;-81
2020/12/16 11:06:47;;;;;;;14.70;9.63;;;8.30;99.90;;;;;;5045466;28;20029;-81
2020/12/16 11:09:16;;;;;;;13.13;9.13;;;8.30;99.90;;;;;;5029164;28;20049;-81
2020/12/16 11:11:43;;;;;;;18.45;11.23;;;8.30;99.90;;;;;;5045750;28;20034;-82
2020/12/16 11:14:09;;;;;;;15.48;10.30;;;8.40;99.90;;;;;;5028860;28;20034;-82
2020/12/16 11:16:35;;;;;;;15.05;10.30;;;8.40;99.90;;;;;;5045237;28;20043;-81
2020/12/16 11:19:00;;;;;;;17.30;11.15;;;8.50;99.90;;;;;;5028086;28;20069;-81
2020/12/16 11:21:27;;;;;;;15.20;9.95;;;8.50;99.90;;;;;;5028603;28;20029;-83
2020/12/16 11:23:54;;;;;;;13.27;9.70;;;8.50;99.90;;;;;;5045393;28;20088;-82
2020/12/16 11:26:20;;;;;;;14.35;8.73;;;8.50;99.90;;;;;;5045268;28;20029;-81
2020/12/16 11:28:46;;;;;;;14.70;9.27;;;8.60;99.90;;;;;;5028712;28;20113;-81
2020/12/16 11:31:11;;;;;;;14.88;9.23;;;8.60;99.90;;;;;;5045085;28;20537;-81
2020/12/16 11:33:37;;;;;;;12.25;8.32;;;8.70;99.90;;;;;;5044877;28;20048;-81
2020/12/16 11:36:09;;;;;;;12.80;8.57;;;8.70;99.90;;;;;;5044866;28;20087;-83
2020/12/16 11:38:34;;;;;;;14.75;9.60;;;8.70;99.90;;;;;;5046171;28;20473;-81
2020/12/16 11:41:00;;;;;;;15.25;10.48;;;8.80;99.90;;;;;;5044682;28;20057;-82
2020/12/16 11:43:26;;;;;;;14.65;9.32;;;8.80;99.90;;;;;;5028514;28;20385;-82
2020/12/16 11:45:55;;;;;;;15.30;10.77;;;8.80;99.90;;;;;;5044456;28;20446;-81
2020/12/16 11:48:21;;;;;;;14.75;9.77;;;8.80;99.90;;;;;;5028164;28;20036;-82
2020/12/16 11:50:47;;;;;;;14.43;9.00;;;8.80;99.90;;;;;;5028016;28;20033;-81
2020/12/16 11:53:13;;;;;;;13.52;9.02;;;8.80;99.90;;;;;;5044541;28;20030;-81
2020/12/16 11:55:39;;;;;;;14.10;8.65;;;8.80;99.90;;;;;;5044737;28;20029;-81
2020/12/16 11:58:08;;;;;;;15.02;8.43;;;8.90;99.90;;;;;;5027904;28;20047;-82
2020/12/16 12:00:34;;;;;;;11.57;8.15;;;8.90;99.90;;;;;;5044593;28;20038;-81
2020/12/16 12:02:59;;;;;;;15.10;9.02;;;8.80;99.90;;;;;;5044397;28;20037;-82
2020/12/16 12:05:25;;;;;;;12.82;7.80;;;8.80;99.90;;;;;;5043816;28;20053;-82
2020/12/16 12:07:50;;;;;;;12.65;8.00;;;8.80;99.90;;;;;;5044282;28;20034;-82
2020/12/16 12:10:16;;;;;;;13.85;7.45;;;8.80;99.90;;;;;;5044407;28;20025;-81
2020/12/16 12:12:41;;;;;;;14.13;9.07;;;8.90;99.90;;;;;;5027970;28;20061;-82
2020/12/16 12:15:07;;;;;;;16.45;10.05;;;8.90;99.90;;;;;;5044159;28;20086;-82
2020/12/16 12:17:33;;;;;;;14.68;10.35;;;9.00;99.90;;;;;;5027761;28;20477;-82
2020/12/16 12:19:58;;;;;;;16.33;10.18;;;9.00;99.90;;;;;;5027918;28;20044;-82
2020/12/16 12:22:24;;;;;;;15.65;8.77;;;9.20;99.90;;;;;;5027576;28;20026;-79
2020/12/16 12:24:49;;;;;;;15.15;9.25;;;9.20;99.90;;;;;;5044152;28;20079;-81
2020/12/16 12:27:16;;;;;;;11.82;7.50;;;9.30;99.90;;;;;;5027859;28;20033;-83
2020/12/16 12:29:42;;;;;;;12.32;8.50;;;9.30;99.90;;;;;;5027418;28;20117;-82
2020/12/16 12:32:08;;;;;;;15.10;10.32;;;9.30;99.90;;;;;;5044344;28;20038;-83
2020/12/16 12:34:33;;;;;;;13.65;8.23;;;9.20;99.90;;;;;;5043986;28;20056;-82
2020/12/16 12:37:01;;;;;;;14.82;9.38;;;9.20;99.90;;;;;;5043688;28;20029;-81
2020/12/16 12:39:27;;;;;;;18.80;11.65;;;9.20;99.90;;;;;;5044206;28;20033;-82
2020/12/16 12:41:53;;;;;;;18.73;12.07;;;9.20;99.90;;;;;;5027473;28;20045;-82
2020/12/16 12:44:20;;;;;;;16.92;10.70;;;9.20;99.90;;;;;;5027622;28;20060;-85
2020/12/16 12:46:48;;;;;;;15.95;10.60;;;9.20;99.90;;;;;;5027425;28;20087;-81
2020/12/16 12:49:17;;;;;;;18.90;10.98;;;9.20;99.90;;;;;;5027714;28;20056;-82
2020/12/16 12:51:49;;;;;;;21.38;11.45;;;9.20;99.90;;;;;;5027453;28;20033;-83
2020/12/16 12:54:15;;;;;;;14.75;9.95;;;9.10;99.90;;;;;;5027559;28;20037;-82
2020/12/16 12:56:41;;;;;;;14.57;9.38;;;9.10;99.90;;;;;;5043792;28;20120;-81
2020/12/16 12:59:06;;;;;;;14.43;9.05;;;9.10;99.90;;;;;;5044016;28;20072;-83
2020/12/16 13:01:32;;;;;;;14.15;8.50;;;9.10;99.90;;;;;;5044078;28;20036;-82